createdAt,value
2023-01-15T00:04:48.123Z,6.90
2023-01-15T00:18:48.245Z,7.40
2023-01-15T00:32:48.282Z,6.20
2023-01-15T00:46:48.497Z,6.00
2023-01-15T01:00:48.484Z,6.35
2023-01-15T01:14:48.483Z,4.90
2023-01-15T01:28:48.499Z,5.30
2023-01-15T01:42:48.528Z,4.10
2023-01-15T01:56:48.518Z,3.65
2023-01-15T02:10:48.535Z,3.40
2023-01-15T02:24:48.576Z,3.30
2023-01-15T02:38:48.690Z,2.90
2023-01-15T02:52:48.687Z,3.30
2023-01-15T03:06:48.680Z,3.60
2023-01-15T03:20:48.679Z,2.40
2023-01-15T03:34:48.679Z,2.50
2023-01-15T03:48:48.693Z,2.10
2023-01-15T04:02:48.719Z,2.40
2023-01-15T04:16:48.822Z,2.60
2023-01-15T04:30:48.869Z,2.30
2023-01-15T04:44:48.901Z,1.80
2023-01-15T04:58:48.934Z,1.80
2023-01-15T05:12:48.931Z,2.00
2023-01-15T05:31:48.936Z,1.70
2023-01-15T05:46:48.975Z,2.10
2023-01-15T06:00:49.300Z,1.95
2023-01-15T06:14:49.403Z,1.60
2023-01-15T06:28:49.402Z,1.60
2023-01-15T06:42:49.421Z,1.45
2023-01-15T06:58:49.483Z,1.60
2023-01-15T07:13:49.513Z,1.60
2023-01-15T07:28:49.573Z,2.15
2023-01-15T07:43:49.735Z,1.90
2023-01-15T07:58:49.911Z,2.05
2023-01-15T08:13:50.007Z,2.00
2023-01-15T08:28:49.992Z,2.90
2023-01-15T08:43:49.991Z,4.20
2023-01-15T08:58:50.011Z,11.60
2023-01-15T09:13:50.031Z,16.90
2023-01-15T09:37:50.017Z,13.75
2023-01-15T09:52:50.039Z,12.30
2023-01-15T10:07:50.061Z,12.30
2023-01-15T10:22:50.069Z,11.20
2023-01-15T10:37:50.056Z,11.20
2023-01-15T10:53:50.067Z,8.60
2023-01-15T11:09:08.361Z,9.70
2023-01-15T11:23:50.078Z,9.60
2023-01-15T11:39:50.071Z,7.85
2023-01-15T11:55:50.089Z,9.00
2023-01-15T12:11:50.162Z,8.80
2023-01-15T12:26:50.125Z,7.20
2023-01-15T12:41:50.910Z,6.20
2023-01-15T12:56:50.922Z,7.35
2023-01-15T13:11:50.947Z,9.80
2023-01-15T13:36:50.967Z,7.10
2023-01-15T13:51:51.052Z,10.00
2023-01-15T14:05:51.031Z,8.45
2023-01-15T14:20:51.026Z,7.90
2023-01-15T14:35:51.067Z,8.30
2023-01-15T14:50:51.233Z,7.10
2023-01-15T15:10:51.353Z,8.00
2023-01-15T16:13:51.400Z,48.15
2023-01-15T16:45:51.415Z,45.80
2023-01-15T19:34:51.564Z,42.10
2023-01-15T20:57:51.869Z,12.30
2023-01-15T21:13:51.646Z,13.90
2023-01-15T21:27:51.888Z,11.80
2023-01-15T21:51:51.657Z,27.30
2023-01-15T22:05:51.703Z,31.20
2023-01-15T23:31:51.794Z,19.80
